createdAt,value
2023-09-16T00:01:35.456Z,4.20
2023-09-16T00:04:02.484Z,4.20
2023-09-16T00:06:29.011Z,3.83
2023-09-16T00:08:55.432Z,4.35
2023-09-16T00:11:22.561Z,3.75
2023-09-16T00:13:48.950Z,3.60
2023-09-16T00:16:16.845Z,3.83
2023-09-16T00:18:43.584Z,4.05
2023-09-16T00:21:11.606Z,3.95
2023-09-16T00:23:38.715Z,3.83
2023-09-16T00:26:05.123Z,4.07
2023-09-16T00:28:36.934Z,3.88
2023-09-16T00:31:03.514Z,4.05
2023-09-16T00:33:30.678Z,4.13
2023-09-16T00:35:58.005Z,3.83
2023-09-16T00:38:24.592Z,4.00
2023-09-16T00:40:51.124Z,3.90
2023-09-16T00:43:17.515Z,3.83
2023-09-16T00:45:43.976Z,4.10
2023-09-16T00:48:12.650Z,3.42
2023-09-16T00:50:39.085Z,3.50
2023-09-16T00:53:05.937Z,3.50
2023-09-16T00:55:32.280Z,3.97
2023-09-16T00:57:59.232Z,4.03
2023-09-16T01:00:27.702Z,3.58
2023-09-16T01:02:55.435Z,3.08
2023-09-16T01:05:22.355Z,3.45
2023-09-16T01:07:48.876Z,3.85
2023-09-16T01:10:16.000Z,3.72
2023-09-16T01:12:43.003Z,3.78
2023-09-16T01:15:10.067Z,4.28
2023-09-16T01:17:52.304Z,3.35
2023-09-16T01:20:19.870Z,3.22
2023-09-16T01:22:46.754Z,3.13
2023-09-16T01:25:14.817Z,3.58
2023-09-16T01:27:41.334Z,3.30
2023-09-16T01:30:08.462Z,3.17
2023-09-16T01:32:41.124Z,3.67
2023-09-16T01:35:09.149Z,3.50
2023-09-16T01:37:35.987Z,3.28
2023-09-16T01:40:11.373Z,3.50
2023-09-16T01:42:38.098Z,3.40
2023-09-16T01:45:05.113Z,3.20
2023-09-16T01:47:31.490Z,3.17
2023-09-16T01:49:57.897Z,3.25
2023-09-16T01:52:24.275Z,3.72
2023-09-16T01:54:50.599Z,3.15
2023-09-16T01:57:17.077Z,3.47
2023-09-16T01:59:43.457Z,3.10
2023-09-16T02:02:09.807Z,3.50
2023-09-16T02:04:37.534Z,3.28
2023-09-16T02:07:04.032Z,3.35
2023-09-16T02:09:30.413Z,3.28
2023-09-16T02:11:56.761Z,3.50
2023-09-16T02:14:23.117Z,2.92
2023-09-16T02:16:50.570Z,3.78
2023-09-16T02:19:17.361Z,2.92
2023-09-16T02:21:43.788Z,3.00
2023-09-16T02:24:10.181Z,3.70
2023-09-16T02:26:36.572Z,3.20
2023-09-16T02:29:03.035Z,3.30
2023-09-16T02:31:29.519Z,3.33
2023-09-16T02:33:56.502Z,3.03
2023-09-16T02:36:22.844Z,3.42
2023-09-16T02:38:49.818Z,3.67
2023-09-16T02:41:18.948Z,3.13
2023-09-16T02:43:45.772Z,3.30
2023-09-16T02:46:12.179Z,3.45
2023-09-16T02:48:38.564Z,3.20
2023-09-16T02:51:04.934Z,4.00
2023-09-16T02:53:31.288Z,3.50
2023-09-16T02:55:57.597Z,3.00
2023-09-16T02:58:24.053Z,3.65
2023-09-16T03:00:50.394Z,3.00
2023-09-16T03:03:16.955Z,3.13
2023-09-16T03:05:46.567Z,3.17
2023-09-16T03:08:13.488Z,3.03
2023-09-16T03:10:39.978Z,3.60
2023-09-16T03:13:06.379Z,3.05
2023-09-16T03:15:36.453Z,3.15
2023-09-16T03:18:08.612Z,3.08
2023-09-16T03:20:35.392Z,3.20
2023-09-16T03:23:01.743Z,3.13
2023-09-16T03:25:28.047Z,3.40
2023-09-16T03:27:54.443Z,3.17
2023-09-16T03:30:21.700Z,2.80
2023-09-16T03:32:48.187Z,3.38
2023-09-16T03:35:14.623Z,3.13
2023-09-16T03:37:40.990Z,3.22
2023-09-16T03:40:07.634Z,3.00
2023-09-16T03:42:34.128Z,2.78
2023-09-16T03:45:00.808Z,2.83
2023-09-16T03:47:28.302Z,3.00
2023-09-16T03:49:54.680Z,3.20
2023-09-16T03:52:21.106Z,3.25
2023-09-16T03:54:47.430Z,3.00
2023-09-16T03:57:13.780Z,3.05
2023-09-16T03:59:40.124Z,2.80
2023-09-16T04:02:06.513Z,3.10
2023-09-16T04:04:32.882Z,3.08
2023-09-16T04:06:59.259Z,2.83
2023-09-16T04:09:26.597Z,3.20
2023-09-16T04:11:52.975Z,3.08
2023-09-16T04:14:21.318Z,2.97
2023-09-16T04:16:48.792Z,3.13
2023-09-16T04:19:15.271Z,3.10
2023-09-16T04:21:41.779Z,2.80
2023-09-16T04:24:08.277Z,2.90
2023-09-16T04:26:35.062Z,3.33
2023-09-16T04:29:02.093Z,3.00
2023-09-16T04:31:28.672Z,3.33
2023-09-16T04:33:55.353Z,3.00
2023-09-16T04:36:21.696Z,3.60
2023-09-16T04:38:48.044Z,2.60
2023-09-16T04:41:15.129Z,3.00
2023-09-16T04:43:41.910Z,2.78
2023-09-16T04:46:08.406Z,3.35
2023-09-16T04:48:34.872Z,2.97
2023-09-16T04:51:01.273Z,3.15
2023-09-16T04:53:27.675Z,3.03
2023-09-16T04:56:01.614Z,2.90
2023-09-16T04:58:28.175Z,2.72
2023-09-16T05:00:54.671Z,3.40
2023-09-16T05:03:21.114Z,2.90
2023-09-16T05:05:47.584Z,2.40
2023-09-16T05:08:13.940Z,3.15
2023-09-16T05:10:40.327Z,2.88
2023-09-16T05:13:06.767Z,2.75
2023-09-16T05:15:33.188Z,2.95
2023-09-16T05:17:59.702Z,2.50
2023-09-16T05:20:26.250Z,2.80
2023-09-16T05:22:52.771Z,2.88
2023-09-16T05:25:19.239Z,2.60
2023-09-16T05:27:46.720Z,2.65
2023-09-16T05:30:13.229Z,2.55
2023-09-16T05:32:39.642Z,3.08
2023-09-16T05:35:06.152Z,3.08
2023-09-16T05:37:32.510Z,2.80
2023-09-16T05:39:58.894Z,3.03
2023-09-16T05:42:25.251Z,2.92
2023-09-16T05:44:51.628Z,2.65
2023-09-16T05:47:18.562Z,2.25
2023-09-16T05:49:45.354Z,3.05
2023-09-16T05:52:11.763Z,3.00
2023-09-16T05:54:38.201Z,2.58
2023-09-16T05:57:04.621Z,2.92
2023-09-16T05:59:30.946Z,2.63
2023-09-16T06:01:57.337Z,2.60
2023-09-16T06:04:23.695Z,2.97
2023-09-16T06:06:53.029Z,2.78
2023-09-16T06:09:19.405Z,3.45
2023-09-16T06:11:45.746Z,3.20
2023-09-16T06:14:12.167Z,3.65
2023-09-16T06:16:38.713Z,4.03
2023-09-16T06:19:05.247Z,4.20
2023-09-16T06:21:31.876Z,4.55
2023-09-16T06:23:59.024Z,4.15
2023-09-16T06:26:25.453Z,4.60
2023-09-16T06:28:51.867Z,4.30
2023-09-16T06:31:18.412Z,4.72
2023-09-16T06:33:44.862Z,4.20
2023-09-16T06:36:11.209Z,4.53
2023-09-16T06:38:37.561Z,4.88
2023-09-16T06:41:03.866Z,5.07
2023-09-16T06:43:30.295Z,4.80
2023-09-16T06:45:56.718Z,4.65
2023-09-16T06:48:23.159Z,4.68
2023-09-16T06:50:51.311Z,4.57
2023-09-16T06:53:17.922Z,4.90
2023-09-16T06:55:44.320Z,4.65
2023-09-16T06:58:10.736Z,4.45
2023-09-16T07:00:37.639Z,4.40
2023-09-16T07:03:04.206Z,4.78
2023-09-16T07:05:31.122Z,4.35
2023-09-16T07:07:57.766Z,5.20
2023-09-16T07:10:24.139Z,5.72
2023-09-16T07:12:50.534Z,5.30
2023-09-16T07:15:17.052Z,5.32
2023-09-16T07:17:43.570Z,4.78
2023-09-16T07:20:10.316Z,4.95
2023-09-16T07:22:36.955Z,5.50
2023-09-16T07:25:03.419Z,5.65
2023-09-16T07:27:29.802Z,5.07
2023-09-16T07:29:56.366Z,5.40
2023-09-16T07:32:22.728Z,5.03
2023-09-16T07:34:49.148Z,5.40
2023-09-16T07:37:15.864Z,4.85
2023-09-16T07:39:42.418Z,5.20
2023-09-16T07:42:11.015Z,5.40
2023-09-16T07:44:37.427Z,5.00
2023-09-16T07:47:03.917Z,5.18
2023-09-16T07:49:30.297Z,5.05
2023-09-16T07:51:56.743Z,4.80
2023-09-16T07:54:23.309Z,4.82
2023-09-16T07:56:49.719Z,5.20
2023-09-16T07:59:21.378Z,4.97
2023-09-16T08:01:47.980Z,5.30
2023-09-16T08:04:14.569Z,4.75
2023-09-16T08:06:41.137Z,4.65
2023-09-16T08:09:07.530Z,5.10
2023-09-16T08:11:33.937Z,5.10
2023-09-16T08:14:00.836Z,5.68
2023-09-16T08:16:27.338Z,5.50
2023-09-16T08:18:53.803Z,5.57
2023-09-16T08:21:20.182Z,5.20
2023-09-16T08:23:46.584Z,5.57
2023-09-16T08:26:13.016Z,5.07
2023-09-16T08:28:39.490Z,4.90
2023-09-16T08:31:05.936Z,6.18
2023-09-16T08:33:32.429Z,5.90
2023-09-16T08:35:58.993Z,5.60
2023-09-16T08:38:25.422Z,6.00
2023-09-16T08:40:56.528Z,4.88
2023-09-16T08:43:27.301Z,5.60
2023-09-16T08:46:04.570Z,5.15
2023-09-16T08:48:33.349Z,4.90
2023-09-16T08:51:02.537Z,5.60
2023-09-16T08:53:30.873Z,5.65
2023-09-16T08:55:57.936Z,5.55
2023-09-16T08:58:24.806Z,5.72
2023-09-16T09:00:51.327Z,5.35
2023-09-16T09:03:17.866Z,5.35
2023-09-16T09:05:45.479Z,5.45
2023-09-16T09:08:12.817Z,4.78
2023-09-16T09:10:39.536Z,5.22
2023-09-16T09:13:07.310Z,4.82
2023-09-16T09:15:35.076Z,5.03
2023-09-16T09:18:02.026Z,5.28
2023-09-16T09:20:29.060Z,5.35
2023-09-16T09:22:56.168Z,4.90
2023-09-16T09:25:26.576Z,4.72
2023-09-16T09:27:53.701Z,5.65
2023-09-16T09:30:30.804Z,4.90
2023-09-16T09:32:58.019Z,5.35
2023-09-16T09:35:31.346Z,5.85
2023-09-16T09:37:58.215Z,5.10
2023-09-16T09:40:25.121Z,5.88
2023-09-16T09:42:53.143Z,5.18
2023-09-16T09:45:20.414Z,4.90
2023-09-16T09:47:47.336Z,4.95
2023-09-16T09:50:15.049Z,5.03
2023-09-16T09:52:48.519Z,4.88
2023-09-16T09:55:18.793Z,4.90
2023-09-16T09:57:48.897Z,4.85
2023-09-16T10:00:17.537Z,5.28
2023-09-16T10:02:44.648Z,4.60
2023-09-16T10:05:15.444Z,4.53
2023-09-16T10:07:43.773Z,4.85
2023-09-16T10:10:18.297Z,4.80
2023-09-16T10:12:45.973Z,4.20
2023-09-16T10:15:13.393Z,4.35
2023-09-16T10:17:40.479Z,4.28
2023-09-16T10:20:07.543Z,4.50
2023-09-16T10:22:34.249Z,4.22
2023-09-16T10:25:00.802Z,4.07
2023-09-16T10:27:28.814Z,4.43
2023-09-16T10:29:56.367Z,4.18
2023-09-16T10:32:23.128Z,4.70
2023-09-16T10:34:50.153Z,4.35
2023-09-16T10:37:20.405Z,4.53
2023-09-16T10:39:47.786Z,4.20
2023-09-16T10:42:21.117Z,4.00
2023-09-16T10:44:48.026Z,3.92
2023-09-16T10:47:17.320Z,4.07
2023-09-16T10:49:46.855Z,3.72
2023-09-16T10:52:16.991Z,3.35
2023-09-16T10:54:48.112Z,4.07
2023-09-16T10:57:18.015Z,3.80
2023-09-16T10:59:45.312Z,3.83
2023-09-16T11:02:24.918Z,4.10
2023-09-16T11:04:51.485Z,4.00
2023-09-16T11:07:18.074Z,3.95
2023-09-16T11:09:44.791Z,4.13
2023-09-16T11:12:11.427Z,3.28
2023-09-16T11:14:38.325Z,3.72
2023-09-16T11:17:11.066Z,3.58
2023-09-16T11:19:40.582Z,3.75
2023-09-16T11:22:07.703Z,3.90
2023-09-16T11:24:35.386Z,3.55
2023-09-16T11:27:01.984Z,3.80
2023-09-16T11:29:29.563Z,4.30
2023-09-16T11:31:56.914Z,3.90
2023-09-16T11:34:24.491Z,3.78
2023-09-16T11:36:55.416Z,3.30
2023-09-16T11:39:23.800Z,4.03
2023-09-16T11:41:50.235Z,3.65
2023-09-16T11:44:16.894Z,3.47
2023-09-16T11:46:46.845Z,3.70
2023-09-16T11:49:13.484Z,3.40
2023-09-16T11:51:40.252Z,3.60
2023-09-16T11:54:07.565Z,3.70
2023-09-16T11:56:35.975Z,3.80
2023-09-16T11:59:04.276Z,4.00
2023-09-16T12:01:31.983Z,4.05
2023-09-16T12:03:59.251Z,3.70
2023-09-16T12:06:27.345Z,3.28
2023-09-16T12:08:54.831Z,3.40
2023-09-16T12:11:22.378Z,3.75
2023-09-16T12:13:49.543Z,3.83
2023-09-16T12:16:17.176Z,3.67
2023-09-16T12:18:44.249Z,3.75
2023-09-16T12:21:11.132Z,3.47
2023-09-16T12:23:37.934Z,3.45
2023-09-16T12:26:04.458Z,3.53
2023-09-16T12:28:31.115Z,3.60
2023-09-16T12:30:57.714Z,3.22
2023-09-16T12:33:24.788Z,3.20
2023-09-16T12:35:52.253Z,3.78
2023-09-16T12:38:18.712Z,3.08
2023-09-16T12:40:45.374Z,3.42
2023-09-16T12:43:12.171Z,3.72
2023-09-16T12:45:39.808Z,3.28
2023-09-16T12:48:08.668Z,3.70
2023-09-16T12:50:37.594Z,3.15
2023-09-16T12:53:04.160Z,3.13
2023-09-16T12:55:30.556Z,3.55
2023-09-16T12:57:57.002Z,3.40
2023-09-16T13:00:26.961Z,3.40
2023-09-16T13:02:54.033Z,3.65
2023-09-16T13:05:21.540Z,3.60
2023-09-16T13:07:54.857Z,3.85
2023-09-16T13:10:21.799Z,3.20
2023-09-16T13:12:51.780Z,3.22
2023-09-16T13:15:21.694Z,3.28
2023-09-16T13:17:49.204Z,3.30
2023-09-16T13:20:16.792Z,3.40
2023-09-16T13:22:44.077Z,3.45
2023-09-16T13:25:29.788Z,3.38
2023-09-16T13:27:56.811Z,3.72
2023-09-16T13:30:27.265Z,3.47
2023-09-16T13:32:54.025Z,3.55
2023-09-16T13:35:21.046Z,3.80
2023-09-16T13:37:50.525Z,3.30
2023-09-16T13:40:17.329Z,3.25
2023-09-16T13:42:44.121Z,3.33
2023-09-16T13:45:10.754Z,3.03
2023-09-16T13:47:40.130Z,3.67
2023-09-16T13:50:06.730Z,3.30
2023-09-16T13:52:37.498Z,3.20
2023-09-16T13:55:04.252Z,3.00
2023-09-16T13:57:30.706Z,3.10
2023-09-16T13:59:57.092Z,3.55
2023-09-16T14:02:24.457Z,3.20
2023-09-16T14:04:51.372Z,3.47
2023-09-16T14:07:19.217Z,2.83
2023-09-16T14:09:47.568Z,3.30
2023-09-16T14:12:13.933Z,3.20
2023-09-16T14:14:40.512Z,3.28
2023-09-16T14:17:07.061Z,3.40
2023-09-16T14:19:33.526Z,3.30
2023-09-16T14:22:01.755Z,3.47
2023-09-16T14:24:29.108Z,3.30
2023-09-16T14:26:55.512Z,3.15
2023-09-16T14:29:21.934Z,3.00
2023-09-16T14:31:52.265Z,2.80
2023-09-16T14:34:21.857Z,3.33
2023-09-16T14:36:49.199Z,3.03
2023-09-16T14:39:16.945Z,3.42
2023-09-16T14:41:45.286Z,3.30
2023-09-16T14:44:13.021Z,3.10
2023-09-16T14:46:40.371Z,2.90
2023-09-16T14:49:07.720Z,3.28
2023-09-16T14:51:40.806Z,3.28
2023-09-16T14:54:08.497Z,3.00
2023-09-16T14:56:35.366Z,3.42
2023-09-16T14:59:03.591Z,3.30
2023-09-16T15:01:30.159Z,2.88
2023-09-16T15:03:56.929Z,2.80
2023-09-16T15:06:23.369Z,2.95
2023-09-16T15:08:50.087Z,3.30
2023-09-16T15:11:20.876Z,3.17
2023-09-16T15:13:47.571Z,3.00
2023-09-16T15:16:15.427Z,3.45
2023-09-16T15:18:42.182Z,3.15
2023-09-16T15:21:08.571Z,3.10
2023-09-16T15:23:34.940Z,2.85
2023-09-16T15:26:01.384Z,2.85
2023-09-16T15:28:27.803Z,3.15
2023-09-16T15:30:54.336Z,2.88
2023-09-16T15:33:21.001Z,3.50
2023-09-16T15:35:47.551Z,3.15
2023-09-16T15:38:15.359Z,3.10
2023-09-16T15:40:41.886Z,3.38
2023-09-16T15:43:08.649Z,2.88
2023-09-16T15:45:36.179Z,3.10
2023-09-16T15:48:02.890Z,3.20
2023-09-16T15:50:29.496Z,3.10
2023-09-16T15:52:56.184Z,3.10
2023-09-16T15:55:22.657Z,2.90
2023-09-16T15:57:49.119Z,2.90
2023-09-16T16:00:15.750Z,2.92
2023-09-16T16:02:42.656Z,3.05
2023-09-16T16:05:09.320Z,2.78
2023-09-16T16:07:35.772Z,3.20
2023-09-16T16:10:02.214Z,2.90
2023-09-16T16:12:28.676Z,2.75
2023-09-16T16:14:55.059Z,3.20
2023-09-16T16:17:24.461Z,2.83
2023-09-16T16:19:51.408Z,2.90
2023-09-16T16:22:17.854Z,3.13
2023-09-16T16:24:44.422Z,2.80
2023-09-16T16:27:10.833Z,2.72
2023-09-16T16:29:37.264Z,3.15
2023-09-16T16:32:03.871Z,2.80
2023-09-16T16:34:30.313Z,2.95
2023-09-16T16:36:56.840Z,2.75
2023-09-16T16:39:23.248Z,3.13
2023-09-16T16:41:49.693Z,2.95
2023-09-16T16:44:16.109Z,2.67
2023-09-16T16:46:42.622Z,2.90
2023-09-16T16:49:09.044Z,3.15
2023-09-16T16:51:35.403Z,2.88
2023-09-16T16:54:01.803Z,3.13
2023-09-16T16:56:28.187Z,3.83
2023-09-16T16:58:54.627Z,3.35
2023-09-16T17:01:21.148Z,2.92
2023-09-16T17:03:49.402Z,3.60
2023-09-16T17:06:16.215Z,3.60
2023-09-16T17:08:42.632Z,3.03
2023-09-16T17:11:09.433Z,3.53
2023-09-16T17:13:36.802Z,2.92
2023-09-16T17:16:05.386Z,3.03
2023-09-16T17:18:31.833Z,2.92
2023-09-16T17:20:58.358Z,3.25
2023-09-16T17:23:25.297Z,3.10
2023-09-16T17:25:51.765Z,3.28
2023-09-16T17:28:25.568Z,2.92
2023-09-16T17:30:52.471Z,4.35
2023-09-16T17:33:19.436Z,3.70
2023-09-16T17:35:46.714Z,3.78
2023-09-16T17:38:13.089Z,3.63
2023-09-16T17:40:39.547Z,4.13
2023-09-16T17:43:12.160Z,3.63
2023-09-16T17:45:38.653Z,3.28
2023-09-16T17:48:05.530Z,4.32
2023-09-16T17:50:32.011Z,3.80
2023-09-16T17:52:58.421Z,4.35
2023-09-16T17:55:24.862Z,3.90
2023-09-16T17:57:51.335Z,3.35
2023-09-16T18:00:17.726Z,2.90
2023-09-16T18:02:44.364Z,3.05
2023-09-16T18:05:10.830Z,2.92
2023-09-16T18:07:37.754Z,2.95
2023-09-16T18:10:07.673Z,3.00
2023-09-16T18:12:35.044Z,3.13
2023-09-16T18:15:01.472Z,2.85
2023-09-16T18:17:27.876Z,2.95
2023-09-16T18:19:54.442Z,2.90
2023-09-16T18:22:21.106Z,3.03
2023-09-16T18:24:47.544Z,3.13
2023-09-16T18:27:14.709Z,3.33
2023-09-16T18:29:41.210Z,3.30
2023-09-16T18:32:07.685Z,2.83
2023-09-16T18:34:34.168Z,3.10
2023-09-16T18:37:00.588Z,3.10
2023-09-16T18:39:29.698Z,3.50
2023-09-16T18:41:56.101Z,3.00
2023-09-16T18:44:23.396Z,3.38
2023-09-16T18:46:51.521Z,3.00
2023-09-16T18:49:18.066Z,3.17
2023-09-16T18:51:45.163Z,3.08
2023-09-16T18:54:12.212Z,3.00
2023-09-16T18:56:38.599Z,3.70
2023-09-16T18:59:05.454Z,3.53
2023-09-16T19:01:32.444Z,3.20
2023-09-16T19:03:59.705Z,3.85
2023-09-16T19:06:26.949Z,3.40
2023-09-16T19:08:53.329Z,3.53
2023-09-16T19:11:21.032Z,3.65
2023-09-16T19:13:47.575Z,3.78
2023-09-16T19:16:14.699Z,3.88
2023-09-16T19:18:41.148Z,3.90
2023-09-16T19:21:07.606Z,3.88
2023-09-16T19:23:33.965Z,3.80
2023-09-16T19:26:00.680Z,3.92
2023-09-16T19:28:27.170Z,4.55
2023-09-16T19:30:53.706Z,4.22
2023-09-16T19:33:20.223Z,4.05
2023-09-16T19:35:46.641Z,4.32
2023-09-16T19:38:13.084Z,4.53
2023-09-16T19:40:39.548Z,3.58
2023-09-16T19:43:06.082Z,4.07
2023-09-16T19:45:32.514Z,4.07
2023-09-16T19:47:59.080Z,4.78
2023-09-16T19:50:27.199Z,3.90
2023-09-16T19:52:53.737Z,4.45
2023-09-16T19:55:20.190Z,4.32
2023-09-16T19:57:46.651Z,4.30
2023-09-16T20:00:14.064Z,4.60
2023-09-16T20:02:40.779Z,4.80
2023-09-16T20:05:07.390Z,4.20
2023-09-16T20:07:33.764Z,4.90
2023-09-16T20:10:00.702Z,5.28
2023-09-16T20:12:27.134Z,4.55
2023-09-16T20:14:53.507Z,4.07
2023-09-16T20:17:19.904Z,4.47
2023-09-16T20:19:48.135Z,4.25
2023-09-16T20:22:14.550Z,4.30
2023-09-16T20:24:41.016Z,4.70
2023-09-16T20:27:07.798Z,4.28
2023-09-16T20:29:34.909Z,4.18
2023-09-16T20:32:01.333Z,4.30
2023-09-16T20:34:27.848Z,4.30
2023-09-16T20:36:54.535Z,4.63
2023-09-16T20:39:20.925Z,4.80
2023-09-16T20:41:47.339Z,4.90
2023-09-16T20:44:13.997Z,4.72
2023-09-16T20:46:40.749Z,4.60
2023-09-16T20:49:07.411Z,4.45
2023-09-16T20:51:33.951Z,4.93
2023-09-16T20:54:00.423Z,4.75
2023-09-16T20:56:26.803Z,4.45
2023-09-16T20:58:53.436Z,4.18
2023-09-16T21:01:19.909Z,4.38
2023-09-16T21:03:46.487Z,4.88
2023-09-16T21:06:13.054Z,4.35
2023-09-16T21:08:40.032Z,4.68
2023-09-16T21:11:06.384Z,4.93
2023-09-16T21:13:32.816Z,4.85
2023-09-16T21:15:59.313Z,4.95
2023-09-16T21:18:25.849Z,4.38
2023-09-16T21:20:52.241Z,4.20
2023-09-16T21:23:18.699Z,4.53
2023-09-16T21:25:45.145Z,4.90
2023-09-16T21:28:11.648Z,4.00
2023-09-16T21:30:38.136Z,4.00
2023-09-16T21:33:04.835Z,4.05
2023-09-16T21:35:31.318Z,4.57
2023-09-16T21:37:57.787Z,4.28
2023-09-16T21:40:25.728Z,4.70
2023-09-16T21:42:52.965Z,4.57
2023-09-16T21:45:19.455Z,4.22
2023-09-16T21:47:45.931Z,4.90
2023-09-16T21:50:12.670Z,4.97
2023-09-16T21:52:39.065Z,5.28
2023-09-16T21:55:05.756Z,5.80
2023-09-16T21:57:32.194Z,4.75
2023-09-16T21:59:58.643Z,4.72
2023-09-16T22:02:25.087Z,5.72
2023-09-16T22:04:51.556Z,6.05
2023-09-16T22:07:17.984Z,6.00
2023-09-16T22:09:45.577Z,5.82
2023-09-16T22:12:11.970Z,4.97
2023-09-16T22:14:38.342Z,4.82
2023-09-16T22:17:04.712Z,5.25
2023-09-16T22:19:31.113Z,4.55
2023-09-16T22:21:57.484Z,4.60
2023-09-16T22:24:23.858Z,5.45
2023-09-16T22:26:50.194Z,4.90
2023-09-16T22:29:16.560Z,5.88
2023-09-16T22:31:42.985Z,5.30
2023-09-16T22:34:09.419Z,4.72
2023-09-16T22:36:35.828Z,4.13
2023-09-16T22:39:02.190Z,4.72
2023-09-16T22:41:28.669Z,6.00
2023-09-16T22:43:55.089Z,6.30
2023-09-16T22:46:21.606Z,5.00
2023-09-16T22:48:48.206Z,5.13
2023-09-16T22:51:14.600Z,4.60
2023-09-16T22:53:41.024Z,4.90
2023-09-16T22:56:07.447Z,4.88
2023-09-16T22:58:35.363Z,5.00
2023-09-16T23:01:08.708Z,5.63
2023-09-16T23:03:35.361Z,4.28
2023-09-16T23:06:02.185Z,5.65
2023-09-16T23:08:28.962Z,5.00
2023-09-16T23:10:55.362Z,5.00
2023-09-16T23:13:21.771Z,4.85
2023-09-16T23:15:48.499Z,4.78
2023-09-16T23:18:14.994Z,4.70
2023-09-16T23:20:43.123Z,4.88
2023-09-16T23:23:09.754Z,4.93
2023-09-16T23:25:36.171Z,4.70
2023-09-16T23:28:02.683Z,4.60
2023-09-16T23:30:29.184Z,5.18
2023-09-16T23:32:55.659Z,4.35
2023-09-16T23:35:22.172Z,5.20
2023-09-16T23:37:48.567Z,4.45
2023-09-16T23:40:14.972Z,4.85
2023-09-16T23:42:41.335Z,4.60
2023-09-16T23:45:08.134Z,5.00
2023-09-16T23:47:34.548Z,4.45
2023-09-16T23:50:00.962Z,5.07
2023-09-16T23:52:27.435Z,4.63
2023-09-16T23:54:53.812Z,4.95
2023-09-16T23:57:20.215Z,4.88
2023-09-16T23:59:46.572Z,4.93
